sensor_id;sensor_type;location;lat;lon;timestamp;temperature;humidity
15394;DHT22;7795;47.986;11.868;2023-07-29T00:01:07;20.40;74.80
15394;DHT22;7795;47.986;11.868;2023-07-29T00:03:32;20.40;74.80
15394;DHT22;7795;47.986;11.868;2023-07-29T00:05:58;20.40;74.90
15394;DHT22;7795;47.986;11.868;2023-07-29T00:08:24;20.40;75.00
15394;DHT22;7795;47.986;11.868;2023-07-29T00:10:51;20.40;75.10
15394;DHT22;7795;47.986;11.868;2023-07-29T00:13:17;20.40;75.20
15394;DHT22;7795;47.986;11.868;2023-07-29T00:15:43;20.40;75.20
15394;DHT22;7795;47.986;11.868;2023-07-29T00:18:09;20.40;75.30
15394;DHT22;7795;47.986;11.868;2023-07-29T00:20:34;20.30;75.20
15394;DHT22;7795;47.986;11.868;2023-07-29T00:23:00;20.30;75.10
15394;DHT22;7795;47.986;11.868;2023-07-29T00:25:27;20.30;75.10
15394;DHT22;7795;47.986;11.868;2023-07-29T00:27:55;20.30;75.10
15394;DHT22;7795;47.986;11.868;2023-07-29T00:30:21;20.20;75.20
15394;DHT22;7795;47.986;11.868;2023-07-29T00:32:46;20.20;75.20
15394;DHT22;7795;47.986;11.868;2023-07-29T00:35:12;20.20;75.30
15394;DHT22;7795;47.986;11.868;2023-07-29T00:37:38;20.20;75.30
15394;DHT22;7795;47.986;11.868;2023-07-29T00:40:12;20.20;75.50
15394;DHT22;7795;47.986;11.868;2023-07-29T00:42:38;20.20;75.90
15394;DHT22;7795;47.986;11.868;2023-07-29T00:45:06;20.20;75.70
15394;DHT22;7795;47.986;11.868;2023-07-29T00:47:33;20.10;75.90
15394;DHT22;7795;47.986;11.868;2023-07-29T00:49:59;20.10;75.90
15394;DHT22;7795;47.986;11.868;2023-07-29T00:52:24;20.10;75.90
15394;DHT22;7795;47.986;11.868;2023-07-29T00:54:50;20.10;76.70
15394;DHT22;7795;47.986;11.868;2023-07-29T00:57:16;20.10;76.80
15394;DHT22;7795;47.986;11.868;2023-07-29T00:59:43;20.00;76.20
15394;DHT22;7795;47.986;11.868;2023-07-29T01:02:10;20.00;76.20
15394;DHT22;7795;47.986;11.868;2023-07-29T01:04:36;20.10;76.40
15394;DHT22;7795;47.986;11.868;2023-07-29T01:07:09;20.00;76.40
15394;DHT22;7795;47.986;11.868;2023-07-29T01:09:46;20.10;76.90
15394;DHT22;7795;47.986;11.868;2023-07-29T01:12:20;20.10;76.80
15394;DHT22;7795;47.986;11.868;2023-07-29T01:14:54;20.00;76.90
15394;DHT22;7795;47.986;11.868;2023-07-29T01:17:26;20.00;76.90
15394;DHT22;7795;47.986;11.868;2023-07-29T01:20:00;20.10;77.20
15394;DHT22;7795;47.986;11.868;2023-07-29T01:22:32;20.10;77.20
15394;DHT22;7795;47.986;11.868;2023-07-29T01:24:59;20.10;76.90
15394;DHT22;7795;47.986;11.868;2023-07-29T01:27:26;20.10;77.10
15394;DHT22;7795;47.986;11.868;2023-07-29T01:29:52;20.10;77.10
15394;DHT22;7795;47.986;11.868;2023-07-29T01:32:25;20.10;77.10
15394;DHT22;7795;47.986;11.868;2023-07-29T01:34:57;20.10;77.20
15394;DHT22;7795;47.986;11.868;2023-07-29T01:37:26;20.10;77.20
15394;DHT22;7795;47.986;11.868;2023-07-29T01:39:55;20.10;77.10
15394;DHT22;7795;47.986;11.868;2023-07-29T01:42:23;20.10;77.10
15394;DHT22;7795;47.986;11.868;2023-07-29T01:44:50;20.10;77.10
15394;DHT22;7795;47.986;11.868;2023-07-29T01:47:16;20.10;77.00
15394;DHT22;7795;47.986;11.868;2023-07-29T01:49:42;20.10;77.00
15394;DHT22;7795;47.986;11.868;2023-07-29T01:52:08;20.10;77.00
15394;DHT22;7795;47.986;11.868;2023-07-29T01:54:33;20.10;76.90
15394;DHT22;7795;47.986;11.868;2023-07-29T01:56:59;20.10;76.90
15394;DHT22;7795;47.986;11.868;2023-07-29T01:59:26;20.10;77.00
15394;DHT22;7795;47.986;11.868;2023-07-29T02:01:52;20.10;77.00
15394;DHT22;7795;47.986;11.868;2023-07-29T02:04:18;20.00;76.80
15394;DHT22;7795;47.986;11.868;2023-07-29T02:06:43;20.00;76.80
15394;DHT22;7795;47.986;11.868;2023-07-29T02:09:09;20.00;76.80
15394;DHT22;7795;47.986;11.868;2023-07-29T02:11:35;20.00;76.90
15394;DHT22;7795;47.986;11.868;2023-07-29T02:14:01;20.00;77.60
15394;DHT22;7795;47.986;11.868;2023-07-29T02:16:28;19.90;76.80
15394;DHT22;7795;47.986;11.868;2023-07-29T02:18:53;19.90;76.90
15394;DHT22;7795;47.986;11.868;2023-07-29T02:21:19;19.90;76.80
15394;DHT22;7795;47.986;11.868;2023-07-29T02:23:45;19.90;76.80
15394;DHT22;7795;47.986;11.868;2023-07-29T02:26:11;19.90;77.70
15394;DHT22;7795;47.986;11.868;2023-07-29T02:28:37;19.80;77.00
15394;DHT22;7795;47.986;11.868;2023-07-29T02:31:12;19.80;77.10
15394;DHT22;7795;47.986;11.868;2023-07-29T02:33:39;19.80;77.50
15394;DHT22;7795;47.986;11.868;2023-07-29T02:36:05;19.80;77.30
15394;DHT22;7795;47.986;11.868;2023-07-29T02:38:31;19.70;77.20
15394;DHT22;7795;47.986;11.868;2023-07-29T02:40:57;19.70;77.20
15394;DHT22;7795;47.986;11.868;2023-07-29T02:43:22;19.70;77.20
15394;DHT22;7795;47.986;11.868;2023-07-29T02:45:48;19.70;77.30
15394;DHT22;7795;47.986;11.868;2023-07-29T02:48:14;19.70;77.30
15394;DHT22;7795;47.986;11.868;2023-07-29T02:50:41;19.70;77.30
15394;DHT22;7795;47.986;11.868;2023-07-29T02:53:06;19.70;77.40
15394;DHT22;7795;47.986;11.868;2023-07-29T02:55:32;19.60;77.30
15394;DHT22;7795;47.986;11.868;2023-07-29T02:57:58;19.60;77.40
15394;DHT22;7795;47.986;11.868;2023-07-29T03:00:23;19.60;77.40
15394;DHT22;7795;47.986;11.868;2023-07-29T03:02:50;19.60;77.40
15394;DHT22;7795;47.986;11.868;2023-07-29T03:05:16;19.60;77.80
15394;DHT22;7795;47.986;11.868;2023-07-29T03:07:43;19.60;77.60
15394;DHT22;7795;47.986;11.868;2023-07-29T03:10:10;19.50;77.60
15394;DHT22;7795;47.986;11.868;2023-07-29T03:12:36;19.50;77.50
15394;DHT22;7795;47.986;11.868;2023-07-29T03:15:02;19.50;77.50
15394;DHT22;7795;47.986;11.868;2023-07-29T03:17:28;19.50;77.50
15394;DHT22;7795;47.986;11.868;2023-07-29T03:19:54;19.50;77.50
15394;DHT22;7795;47.986;11.868;2023-07-29T03:22:20;19.50;77.50
15394;DHT22;7795;47.986;11.868;2023-07-29T03:24:47;19.50;77.50
15394;DHT22;7795;47.986;11.868;2023-07-29T03:27:13;19.40;77.50
15394;DHT22;7795;47.986;11.868;2023-07-29T03:29:40;19.40;77.60
15394;DHT22;7795;47.986;11.868;2023-07-29T03:32:06;19.40;77.70
15394;DHT22;7795;47.986;11.868;2023-07-29T03:34:32;19.40;77.80
15394;DHT22;7795;47.986;11.868;2023-07-29T03:36:59;19.40;77.80
15394;DHT22;7795;47.986;11.868;2023-07-29T03:39:24;19.40;77.80
15394;DHT22;7795;47.986;11.868;2023-07-29T03:41:51;19.40;77.80
15394;DHT22;7795;47.986;11.868;2023-07-29T03:44:17;19.30;77.90
15394;DHT22;7795;47.986;11.868;2023-07-29T03:46:43;19.30;77.90
15394;DHT22;7795;47.986;11.868;2023-07-29T03:49:09;19.30;78.00
15394;DHT22;7795;47.986;11.868;2023-07-29T03:51:35;19.30;78.00
15394;DHT22;7795;47.986;11.868;2023-07-29T03:54:01;19.30;78.00
15394;DHT22;7795;47.986;11.868;2023-07-29T03:56:26;19.30;78.00
15394;DHT22;7795;47.986;11.868;2023-07-29T03:58:56;19.30;78.10
15394;DHT22;7795;47.986;11.868;2023-07-29T04:01:27;19.30;78.20
15394;DHT22;7795;47.986;11.868;2023-07-29T04:03:52;19.30;78.90
15394;DHT22;7795;47.986;11.868;2023-07-29T04:06:19;19.30;78.20
15394;DHT22;7795;47.986;11.868;2023-07-29T04:08:45;19.30;78.20
15394;DHT22;7795;47.986;11.868;2023-07-29T04:11:11;19.30;78.30
15394;DHT22;7795;47.986;11.868;2023-07-29T04:13:37;19.30;78.40
15394;DHT22;7795;47.986;11.868;2023-07-29T04:16:04;19.20;78.50
15394;DHT22;7795;47.986;11.868;2023-07-29T04:18:30;19.30;78.80
15394;DHT22;7795;47.986;11.868;2023-07-29T04:20:56;19.20;78.80
15394;DHT22;7795;47.986;11.868;2023-07-29T04:23:21;19.30;79.00
15394;DHT22;7795;47.986;11.868;2023-07-29T04:25:48;19.30;79.00
15394;DHT22;7795;47.986;11.868;2023-07-29T04:28:15;19.30;79.20
15394;DHT22;7795;47.986;11.868;2023-07-29T04:30:41;19.30;79.20
15394;DHT22;7795;47.986;11.868;2023-07-29T04:33:08;19.30;79.30
15394;DHT22;7795;47.986;11.868;2023-07-29T04:35:34;19.30;79.40
15394;DHT22;7795;47.986;11.868;2023-07-29T04:37:59;19.30;79.30
15394;DHT22;7795;47.986;11.868;2023-07-29T04:40:25;19.40;79.50
15394;DHT22;7795;47.986;11.868;2023-07-29T04:42:51;19.40;79.50
15394;DHT22;7795;47.986;11.868;2023-07-29T04:45:17;19.40;79.60
15394;DHT22;7795;47.986;11.868;2023-07-29T04:47:43;19.40;79.60
15394;DHT22;7795;47.986;11.868;2023-07-29T04:50:10;19.50;79.70
15394;DHT22;7795;47.986;11.868;2023-07-29T04:52:36;19.50;79.80
15394;DHT22;7795;47.986;11.868;2023-07-29T04:55:01;19.50;79.70
15394;DHT22;7795;47.986;11.868;2023-07-29T04:57:27;19.60;80.00
15394;DHT22;7795;47.986;11.868;2023-07-29T04:59:53;19.60;80.10
15394;DHT22;7795;47.986;11.868;2023-07-29T05:02:19;19.70;80.40
15394;DHT22;7795;47.986;11.868;2023-07-29T05:04:45;19.80;80.70
15394;DHT22;7795;47.986;11.868;2023-07-29T05:07:12;19.90;80.80
15394;DHT22;7795;47.986;11.868;2023-07-29T05:09:38;20.10;81.10
15394;DHT22;7795;47.986;11.868;2023-07-29T05:12:04;20.20;81.10
15394;DHT22;7795;47.986;11.868;2023-07-29T05:14:30;20.30;81.00
15394;DHT22;7795;47.986;11.868;2023-07-29T05:16:56;20.50;80.80
15394;DHT22;7795;47.986;11.868;2023-07-29T05:19:22;20.70;80.70
15394;DHT22;7795;47.986;11.868;2023-07-29T05:21:48;20.80;80.40
15394;DHT22;7795;47.986;11.868;2023-07-29T05:24:15;21.00;80.00
15394;DHT22;7795;47.986;11.868;2023-07-29T05:26:40;21.20;79.70
15394;DHT22;7795;47.986;11.868;2023-07-29T05:29:06;21.40;79.40
15394;DHT22;7795;47.986;11.868;2023-07-29T05:31:32;21.50;79.10
15394;DHT22;7795;47.986;11.868;2023-07-29T05:33:58;21.70;79.00
15394;DHT22;7795;47.986;11.868;2023-07-29T05:36:24;21.80;78.60
15394;DHT22;7795;47.986;11.868;2023-07-29T05:38:50;22.00;78.20
15394;DHT22;7795;47.986;11.868;2023-07-29T05:41:17;22.20;77.90
15394;DHT22;7795;47.986;11.868;2023-07-29T05:43:42;22.30;77.60
15394;DHT22;7795;47.986;11.868;2023-07-29T05:46:08;22.40;77.40
15394;DHT22;7795;47.986;11.868;2023-07-29T05:48:34;22.60;77.10
15394;DHT22;7795;47.986;11.868;2023-07-29T05:51:00;22.70;76.70
15394;DHT22;7795;47.986;11.868;2023-07-29T05:53:25;22.80;76.20
15394;DHT22;7795;47.986;11.868;2023-07-29T05:55:51;22.90;75.80
15394;DHT22;7795;47.986;11.868;2023-07-29T05:58:18;23.00;75.70
15394;DHT22;7795;47.986;11.868;2023-07-29T06:00:44;23.10;75.40
15394;DHT22;7795;47.986;11.868;2023-07-29T06:03:10;23.20;75.30
15394;DHT22;7795;47.986;11.868;2023-07-29T06:05:35;23.20;75.20
15394;DHT22;7795;47.986;11.868;2023-07-29T06:08:01;23.30;75.80
15394;DHT22;7795;47.986;11.868;2023-07-29T06:10:27;23.30;74.90
15394;DHT22;7795;47.986;11.868;2023-07-29T06:12:52;23.30;74.60
15394;DHT22;7795;47.986;11.868;2023-07-29T06:15:20;23.40;74.50
15394;DHT22;7795;47.986;11.868;2023-07-29T06:17:48;23.40;74.20
15394;DHT22;7795;47.986;11.868;2023-07-29T06:20:14;23.40;74.10
15394;DHT22;7795;47.986;11.868;2023-07-29T06:22:40;23.40;74.90
15394;DHT22;7795;47.986;11.868;2023-07-29T06:25:07;23.40;74.10
15394;DHT22;7795;47.986;11.868;2023-07-29T06:27:32;23.40;74.00
15394;DHT22;7795;47.986;11.868;2023-07-29T06:29:58;23.40;74.00
15394;DHT22;7795;47.986;11.868;2023-07-29T06:32:25;23.30;74.00
15394;DHT22;7795;47.986;11.868;2023-07-29T06:34:51;23.30;74.00
15394;DHT22;7795;47.986;11.868;2023-07-29T06:37:19;23.30;74.20
15394;DHT22;7795;47.986;11.868;2023-07-29T06:39:45;23.20;74.30
15394;DHT22;7795;47.986;11.868;2023-07-29T06:42:11;23.20;74.40
15394;DHT22;7795;47.986;11.868;2023-07-29T06:44:36;23.20;74.60
15394;DHT22;7795;47.986;11.868;2023-07-29T06:47:02;23.10;74.60
15394;DHT22;7795;47.986;11.868;2023-07-29T06:49:30;23.10;74.60
15394;DHT22;7795;47.986;11.868;2023-07-29T06:51:55;23.10;74.80
15394;DHT22;7795;47.986;11.868;2023-07-29T06:54:24;23.00;74.80
15394;DHT22;7795;47.986;11.868;2023-07-29T06:56:50;23.00;75.10
15394;DHT22;7795;47.986;11.868;2023-07-29T06:59:16;23.00;75.20
15394;DHT22;7795;47.986;11.868;2023-07-29T07:01:42;22.90;75.40
15394;DHT22;7795;47.986;11.868;2023-07-29T07:04:07;22.90;75.50
15394;DHT22;7795;47.986;11.868;2023-07-29T07:06:34;22.90;75.60
15394;DHT22;7795;47.986;11.868;2023-07-29T07:09:00;22.90;75.20
15394;DHT22;7795;47.986;11.868;2023-07-29T07:11:26;22.90;75.00
15394;DHT22;7795;47.986;11.868;2023-07-29T07:13:52;22.90;75.00
15394;DHT22;7795;47.986;11.868;2023-07-29T07:16:17;22.80;74.80
15394;DHT22;7795;47.986;11.868;2023-07-29T07:18:43;22.80;74.70
15394;DHT22;7795;47.986;11.868;2023-07-29T07:21:09;22.80;74.40
15394;DHT22;7795;47.986;11.868;2023-07-29T07:23:36;22.80;75.10
15394;DHT22;7795;47.986;11.868;2023-07-29T07:26:02;22.70;74.30
15394;DHT22;7795;47.986;11.868;2023-07-29T07:28:28;22.60;74.30
15394;DHT22;7795;47.986;11.868;2023-07-29T07:30:54;22.60;74.30
15394;DHT22;7795;47.986;11.868;2023-07-29T07:33:21;22.60;74.50
15394;DHT22;7795;47.986;11.868;2023-07-29T07:35:47;22.60;74.60
15394;DHT22;7795;47.986;11.868;2023-07-29T07:38:12;22.50;74.40
15394;DHT22;7795;47.986;11.868;2023-07-29T07:40:40;22.50;74.60
15394;DHT22;7795;47.986;11.868;2023-07-29T07:43:05;22.50;74.80
15394;DHT22;7795;47.986;11.868;2023-07-29T07:45:32;22.50;74.80
15394;DHT22;7795;47.986;11.868;2023-07-29T07:47:57;22.50;75.00
15394;DHT22;7795;47.986;11.868;2023-07-29T07:50:23;22.50;75.10
15394;DHT22;7795;47.986;11.868;2023-07-29T07:52:49;22.60;75.40
15394;DHT22;7795;47.986;11.868;2023-07-29T07:55:15;22.60;75.20
15394;DHT22;7795;47.986;11.868;2023-07-29T07:57:42;22.60;75.20
15394;DHT22;7795;47.986;11.868;2023-07-29T08:00:09;22.70;76.30
15394;DHT22;7795;47.986;11.868;2023-07-29T08:02:35;22.70;75.50
15394;DHT22;7795;47.986;11.868;2023-07-29T08:05:01;22.80;75.50
15394;DHT22;7795;47.986;11.868;2023-07-29T08:07:26;22.80;75.50
15394;DHT22;7795;47.986;11.868;2023-07-29T08:09:52;22.90;75.60
15394;DHT22;7795;47.986;11.868;2023-07-29T08:12:18;22.90;75.70
15394;DHT22;7795;47.986;11.868;2023-07-29T08:14:45;22.90;75.80
15394;DHT22;7795;47.986;11.868;2023-07-29T08:17:11;23.00;76.00
15394;DHT22;7795;47.986;11.868;2023-07-29T08:19:36;23.00;75.90
15394;DHT22;7795;47.986;11.868;2023-07-29T08:22:03;23.10;75.80
15394;DHT22;7795;47.986;11.868;2023-07-29T08:24:29;23.20;75.80
15394;DHT22;7795;47.986;11.868;2023-07-29T08:26:54;23.20;75.70
15394;DHT22;7795;47.986;11.868;2023-07-29T08:29:20;23.20;76.00
15394;DHT22;7795;47.986;11.868;2023-07-29T08:31:47;23.30;75.60
15394;DHT22;7795;47.986;11.868;2023-07-29T08:34:13;23.30;75.70
15394;DHT22;7795;47.986;11.868;2023-07-29T08:36:39;23.30;75.80
15394;DHT22;7795;47.986;11.868;2023-07-29T08:39:04;23.30;75.90
15394;DHT22;7795;47.986;11.868;2023-07-29T08:41:35;23.30;76.10
15394;DHT22;7795;47.986;11.868;2023-07-29T08:44:09;23.40;76.30
15394;DHT22;7795;47.986;11.868;2023-07-29T08:46:35;23.50;76.30
15394;DHT22;7795;47.986;11.868;2023-07-29T08:49:03;23.50;76.10
15394;DHT22;7795;47.986;11.868;2023-07-29T08:51:31;23.60;76.00
15394;DHT22;7795;47.986;11.868;2023-07-29T08:53:58;23.60;75.90
15394;DHT22;7795;47.986;11.868;2023-07-29T08:56:24;23.70;76.10
15394;DHT22;7795;47.986;11.868;2023-07-29T08:58:51;23.80;75.80
15394;DHT22;7795;47.986;11.868;2023-07-29T09:01:17;23.80;75.50
15394;DHT22;7795;47.986;11.868;2023-07-29T09:03:42;23.90;75.30
15394;DHT22;7795;47.986;11.868;2023-07-29T09:06:10;23.90;75.20
15394;DHT22;7795;47.986;11.868;2023-07-29T09:08:36;24.00;75.00
15394;DHT22;7795;47.986;11.868;2023-07-29T09:11:02;24.00;74.80
15394;DHT22;7795;47.986;11.868;2023-07-29T09:13:28;24.10;74.80
15394;DHT22;7795;47.986;11.868;2023-07-29T09:15:54;24.10;74.60
15394;DHT22;7795;47.986;11.868;2023-07-29T09:18:21;24.10;74.50
15394;DHT22;7795;47.986;11.868;2023-07-29T09:20:48;24.10;74.70
15394;DHT22;7795;47.986;11.868;2023-07-29T09:23:16;24.10;74.90
15394;DHT22;7795;47.986;11.868;2023-07-29T09:25:41;24.10;75.00
15394;DHT22;7795;47.986;11.868;2023-07-29T09:28:09;24.10;74.90
15394;DHT22;7795;47.986;11.868;2023-07-29T09:30:35;24.10;75.10
15394;DHT22;7795;47.986;11.868;2023-07-29T09:33:01;24.10;75.20
15394;DHT22;7795;47.986;11.868;2023-07-29T09:35:28;24.10;75.30
15394;DHT22;7795;47.986;11.868;2023-07-29T09:37:54;24.10;75.50
15394;DHT22;7795;47.986;11.868;2023-07-29T09:40:21;24.20;75.60
15394;DHT22;7795;47.986;11.868;2023-07-29T09:42:50;24.20;76.40
15394;DHT22;7795;47.986;11.868;2023-07-29T09:45:23;24.20;75.90
15394;DHT22;7795;47.986;11.868;2023-07-29T09:47:51;24.30;75.90
15394;DHT22;7795;47.986;11.868;2023-07-29T09:50:17;24.40;76.10
15394;DHT22;7795;47.986;11.868;2023-07-29T09:52:43;24.50;76.20
15394;DHT22;7795;47.986;11.868;2023-07-29T09:55:11;24.50;76.10
15394;DHT22;7795;47.986;11.868;2023-07-29T09:57:39;24.60;76.20
15394;DHT22;7795;47.986;11.868;2023-07-29T10:00:06;24.80;76.20
15394;DHT22;7795;47.986;11.868;2023-07-29T10:02:37;24.80;75.90
15394;DHT22;7795;47.986;11.868;2023-07-29T10:05:03;25.00;75.90
15394;DHT22;7795;47.986;11.868;2023-07-29T10:07:30;25.10;75.80
15394;DHT22;7795;47.986;11.868;2023-07-29T10:09:58;25.20;75.60
15394;DHT22;7795;47.986;11.868;2023-07-29T10:12:24;25.20;74.70
15394;DHT22;7795;47.986;11.868;2023-07-29T10:14:52;25.40;74.10
15394;DHT22;7795;47.986;11.868;2023-07-29T10:17:20;25.40;73.10
15394;DHT22;7795;47.986;11.868;2023-07-29T10:19:46;25.50;72.10
15394;DHT22;7795;47.986;11.868;2023-07-29T10:22:13;25.60;71.50
15394;DHT22;7795;47.986;11.868;2023-07-29T10:24:43;25.70;71.20
15394;DHT22;7795;47.986;11.868;2023-07-29T10:27:11;25.80;70.70
15394;DHT22;7795;47.986;11.868;2023-07-29T10:29:42;25.80;70.10
15394;DHT22;7795;47.986;11.868;2023-07-29T10:32:11;25.90;70.10
15394;DHT22;7795;47.986;11.868;2023-07-29T10:34:37;26.00;69.60
15394;DHT22;7795;47.986;11.868;2023-07-29T10:37:05;26.10;69.70
15394;DHT22;7795;47.986;11.868;2023-07-29T10:39:38;26.20;69.40
15394;DHT22;7795;47.986;11.868;2023-07-29T10:42:05;26.30;68.30
15394;DHT22;7795;47.986;11.868;2023-07-29T10:44:51;26.40;68.90
15394;DHT22;7795;47.986;11.868;2023-07-29T10:47:25;26.50;67.50
15394;DHT22;7795;47.986;11.868;2023-07-29T10:49:53;26.60;67.90
15394;DHT22;7795;47.986;11.868;2023-07-29T10:52:31;26.70;68.10
15394;DHT22;7795;47.986;11.868;2023-07-29T10:54:56;26.80;67.00
15394;DHT22;7795;47.986;11.868;2023-07-29T10:57:30;26.90;67.70
15394;DHT22;7795;47.986;11.868;2023-07-29T10:59:57;27.00;66.50
15394;DHT22;7795;47.986;11.868;2023-07-29T11:02:29;27.10;67.40
15394;DHT22;7795;47.986;11.868;2023-07-29T11:04:55;27.20;66.40
15394;DHT22;7795;47.986;11.868;2023-07-29T11:07:22;27.30;66.30
15394;DHT22;7795;47.986;11.868;2023-07-29T11:09:59;27.30;65.80
15394;DHT22;7795;47.986;11.868;2023-07-29T11:12:42;27.40;65.40
15394;DHT22;7795;47.986;11.868;2023-07-29T11:15:17;27.50;64.20
15394;DHT22;7795;47.986;11.868;2023-07-29T11:17:45;27.60;64.70
15394;DHT22;7795;47.986;11.868;2023-07-29T11:20:12;27.60;64.30
15394;DHT22;7795;47.986;11.868;2023-07-29T11:22:39;27.70;64.50
15394;DHT22;7795;47.986;11.868;2023-07-29T11:25:06;27.70;64.20
15394;DHT22;7795;47.986;11.868;2023-07-29T11:27:32;27.80;64.00
15394;DHT22;7795;47.986;11.868;2023-07-29T11:29:59;27.80;63.50
15394;DHT22;7795;47.986;11.868;2023-07-29T11:32:25;27.90;63.60
15394;DHT22;7795;47.986;11.868;2023-07-29T11:34:52;27.90;63.50
15394;DHT22;7795;47.986;11.868;2023-07-29T11:37:18;27.90;63.20
15394;DHT22;7795;47.986;11.868;2023-07-29T11:39:46;27.90;63.50
15394;DHT22;7795;47.986;11.868;2023-07-29T11:42:12;27.90;63.30
15394;DHT22;7795;47.986;11.868;2023-07-29T11:44:38;27.90;63.20
15394;DHT22;7795;47.986;11.868;2023-07-29T11:47:06;28.00;63.10
15394;DHT22;7795;47.986;11.868;2023-07-29T11:49:33;28.00;62.80
15394;DHT22;7795;47.986;11.868;2023-07-29T11:52:01;28.10;63.40
15394;DHT22;7795;47.986;11.868;2023-07-29T11:54:27;28.20;62.90
15394;DHT22;7795;47.986;11.868;2023-07-29T11:56:53;28.30;63.60
15394;DHT22;7795;47.986;11.868;2023-07-29T11:59:19;28.40;62.40
15394;DHT22;7795;47.986;11.868;2023-07-29T12:01:45;28.40;62.30
15394;DHT22;7795;47.986;11.868;2023-07-29T12:04:12;28.50;62.00
15394;DHT22;7795;47.986;11.868;2023-07-29T12:06:38;28.60;61.70
15394;DHT22;7795;47.986;11.868;2023-07-29T12:09:06;28.70;61.50
15394;DHT22;7795;47.986;11.868;2023-07-29T12:11:33;28.80;60.70
15394;DHT22;7795;47.986;11.868;2023-07-29T12:13:59;28.80;60.70
15394;DHT22;7795;47.986;11.868;2023-07-29T12:16:25;28.90;60.80
15394;DHT22;7795;47.986;11.868;2023-07-29T12:18:51;28.90;60.60
15394;DHT22;7795;47.986;11.868;2023-07-29T12:21:18;29.00;60.20
15394;DHT22;7795;47.986;11.868;2023-07-29T12:23:44;29.10;59.60
15394;DHT22;7795;47.986;11.868;2023-07-29T12:26:11;29.10;59.80
15394;DHT22;7795;47.986;11.868;2023-07-29T12:28:37;29.20;59.40
15394;DHT22;7795;47.986;11.868;2023-07-29T12:31:07;29.30;59.40
15394;DHT22;7795;47.986;11.868;2023-07-29T12:33:35;29.40;59.00
15394;DHT22;7795;47.986;11.868;2023-07-29T12:36:01;29.40;59.20
15394;DHT22;7795;47.986;11.868;2023-07-29T12:38:27;29.40;59.20
15394;DHT22;7795;47.986;11.868;2023-07-29T12:40:53;29.50;59.00
15394;DHT22;7795;47.986;11.868;2023-07-29T12:43:21;29.50;59.10
15394;DHT22;7795;47.986;11.868;2023-07-29T12:45:47;29.60;59.00
15394;DHT22;7795;47.986;11.868;2023-07-29T12:48:14;29.60;59.00
15394;DHT22;7795;47.986;11.868;2023-07-29T12:50:40;29.70;58.70
15394;DHT22;7795;47.986;11.868;2023-07-29T12:53:07;29.70;58.40
15394;DHT22;7795;47.986;11.868;2023-07-29T12:55:33;29.70;58.40
15394;DHT22;7795;47.986;11.868;2023-07-29T12:57:59;29.70;58.70
15394;DHT22;7795;47.986;11.868;2023-07-29T13:00:26;29.70;58.60
15394;DHT22;7795;47.986;11.868;2023-07-29T13:02:52;29.80;58.00
15394;DHT22;7795;47.986;11.868;2023-07-29T13:05:17;29.80;57.60
15394;DHT22;7795;47.986;11.868;2023-07-29T13:07:43;29.80;57.60
15394;DHT22;7795;47.986;11.868;2023-07-29T13:10:10;29.80;57.50
15394;DHT22;7795;47.986;11.868;2023-07-29T13:12:35;29.80;57.90
15394;DHT22;7795;47.986;11.868;2023-07-29T13:15:01;29.90;57.10
15394;DHT22;7795;47.986;11.868;2023-07-29T13:17:28;29.90;57.00
15394;DHT22;7795;47.986;11.868;2023-07-29T13:19:54;30.00;56.90
15394;DHT22;7795;47.986;11.868;2023-07-29T13:22:20;30.00;56.80
15394;DHT22;7795;47.986;11.868;2023-07-29T13:24:46;30.10;56.60
15394;DHT22;7795;47.986;11.868;2023-07-29T13:27:12;30.10;56.10
15394;DHT22;7795;47.986;11.868;2023-07-29T13:29:38;30.20;56.10
15394;DHT22;7795;47.986;11.868;2023-07-29T13:32:05;30.20;56.50
15394;DHT22;7795;47.986;11.868;2023-07-29T13:34:32;30.20;55.30
15394;DHT22;7795;47.986;11.868;2023-07-29T13:36:59;30.20;54.80
15394;DHT22;7795;47.986;11.868;2023-07-29T13:39:25;30.10;54.90
15394;DHT22;7795;47.986;11.868;2023-07-29T13:41:51;30.00;54.60
15394;DHT22;7795;47.986;11.868;2023-07-29T13:44:16;29.80;54.20
15394;DHT22;7795;47.986;11.868;2023-07-29T13:46:42;29.70;54.80
15394;DHT22;7795;47.986;11.868;2023-07-29T13:49:08;29.50;55.10
15394;DHT22;7795;47.986;11.868;2023-07-29T13:51:35;29.40;55.40
15394;DHT22;7795;47.986;11.868;2023-07-29T13:54:01;29.30;55.60
15394;DHT22;7795;47.986;11.868;2023-07-29T13:56:27;29.20;55.90
15394;DHT22;7795;47.986;11.868;2023-07-29T13:58:53;29.10;56.70
15394;DHT22;7795;47.986;11.868;2023-07-29T14:01:18;29.00;56.20
15394;DHT22;7795;47.986;11.868;2023-07-29T14:03:44;28.90;56.40
15394;DHT22;7795;47.986;11.868;2023-07-29T14:06:10;28.80;56.50
15394;DHT22;7795;47.986;11.868;2023-07-29T14:08:37;28.80;56.90
15394;DHT22;7795;47.986;11.868;2023-07-29T14:11:04;28.70;57.40
15394;DHT22;7795;47.986;11.868;2023-07-29T14:13:29;28.60;57.30
15394;DHT22;7795;47.986;11.868;2023-07-29T14:15:55;28.60;57.20
15394;DHT22;7795;47.986;11.868;2023-07-29T14:18:21;28.50;57.20
15394;DHT22;7795;47.986;11.868;2023-07-29T14:20:47;28.40;57.40
15394;DHT22;7795;47.986;11.868;2023-07-29T14:23:12;28.30;57.40
15394;DHT22;7795;47.986;11.868;2023-07-29T14:25:40;28.20;57.40
15394;DHT22;7795;47.986;11.868;2023-07-29T14:28:05;28.20;57.50
15394;DHT22;7795;47.986;11.868;2023-07-29T14:30:31;28.10;57.50
15394;DHT22;7795;47.986;11.868;2023-07-29T14:32:57;28.10;57.70
15394;DHT22;7795;47.986;11.868;2023-07-29T14:35:23;28.00;57.80
15394;DHT22;7795;47.986;11.868;2023-07-29T14:37:49;28.00;58.40
15394;DHT22;7795;47.986;11.868;2023-07-29T14:40:15;28.00;57.80
15394;DHT22;7795;47.986;11.868;2023-07-29T14:42:42;27.90;57.80
15394;DHT22;7795;47.986;11.868;2023-07-29T14:45:08;27.90;57.70
15394;DHT22;7795;47.986;11.868;2023-07-29T14:47:34;27.80;57.50
15394;DHT22;7795;47.986;11.868;2023-07-29T14:50:00;27.80;57.60
15394;DHT22;7795;47.986;11.868;2023-07-29T14:52:26;27.70;57.70
15394;DHT22;7795;47.986;11.868;2023-07-29T14:54:51;27.70;58.00
15394;DHT22;7795;47.986;11.868;2023-07-29T14:57:17;27.60;58.30
15394;DHT22;7795;47.986;11.868;2023-07-29T14:59:44;27.50;58.30
15394;DHT22;7795;47.986;11.868;2023-07-29T15:02:10;27.50;58.60
15394;DHT22;7795;47.986;11.868;2023-07-29T15:04:35;27.40;59.00
15394;DHT22;7795;47.986;11.868;2023-07-29T15:07:02;27.30;58.90
15394;DHT22;7795;47.986;11.868;2023-07-29T15:09:28;27.20;59.20
15394;DHT22;7795;47.986;11.868;2023-07-29T15:11:54;27.20;59.50
15394;DHT22;7795;47.986;11.868;2023-07-29T15:14:19;27.00;59.60
15394;DHT22;7795;47.986;11.868;2023-07-29T15:16:46;26.90;59.70
15394;DHT22;7795;47.986;11.868;2023-07-29T15:19:12;26.90;61.10
15394;DHT22;7795;47.986;11.868;2023-07-29T15:21:39;26.80;60.20
15394;DHT22;7795;47.986;11.868;2023-07-29T15:24:05;26.80;60.80
15394;DHT22;7795;47.986;11.868;2023-07-29T15:26:31;26.70;60.80